sensor_id;sensor_type;location;lat;lon;timestamp;P1;durP1;ratioP1;P2;durP2;ratioP2
17814;SDS011;9031;50.974;11.330;2023-05-10T00:01:54;4.80;;;2.30;;
17814;SDS011;9031;50.974;11.330;2023-05-10T00:04:20;2.60;;;2.40;;
17814;SDS011;9031;50.974;11.330;2023-05-10T00:06:46;3.37;;;2.67;;
17814;SDS011;9031;50.974;11.330;2023-05-10T00:09:11;3.57;;;3.20;;
17814;SDS011;9031;50.974;11.330;2023-05-10T00:11:37;2.53;;;2.33;;
17814;SDS011;9031;50.974;11.330;2023-05-10T00:14:02;2.73;;;2.50;;
17814;SDS011;9031;50.974;11.330;2023-05-10T00:16:28;3.20;;;2.90;;
17814;SDS011;9031;50.974;11.330;2023-05-10T00:18:53;2.93;;;2.70;;
17814;SDS011;9031;50.974;11.330;2023-05-10T00:21:19;2.50;;;2.30;;
17814;SDS011;9031;50.974;11.330;2023-05-10T00:23:44;2.90;;;2.57;;
17814;SDS011;9031;50.974;11.330;2023-05-10T00:26:10;4.17;;;2.97;;
17814;SDS011;9031;50.974;11.330;2023-05-10T00:28:36;3.63;;;2.60;;
17814;SDS011;9031;50.974;11.330;2023-05-10T00:31:02;5.13;;;2.80;;
17814;SDS011;9031;50.974;11.330;2023-05-10T00:33:27;4.40;;;2.50;;
17814;SDS011;9031;50.974;11.330;2023-05-10T00:35:53;4.57;;;2.53;;
17814;SDS011;9031;50.974;11.330;2023-05-10T00:38:18;2.67;;;2.43;;
17814;SDS011;9031;50.974;11.330;2023-05-10T00:40:44;3.07;;;2.40;;
17814;SDS011;9031;50.974;11.330;2023-05-10T00:43:09;5.47;;;2.33;;
17814;SDS011;9031;50.974;11.330;2023-05-10T00:45:35;4.43;;;2.30;;
17814;SDS011;9031;50.974;11.330;2023-05-10T00:48:01;4.63;;;2.47;;
17814;SDS011;9031;50.974;11.330;2023-05-10T00:50:27;4.07;;;2.37;;
17814;SDS011;9031;50.974;11.330;2023-05-10T00:52:53;6.90;;;2.50;;
17814;SDS011;9031;50.974;11.330;2023-05-10T00:55:19;3.43;;;2.67;;
17814;SDS011;9031;50.974;11.330;2023-05-10T00:57:45;3.13;;;2.40;;
17814;SDS011;9031;50.974;11.330;2023-05-10T01:00:10;4.53;;;2.47;;
17814;SDS011;9031;50.974;11.330;2023-05-10T01:02:37;2.47;;;2.27;;
17814;SDS011;9031;50.974;11.330;2023-05-10T01:05:03;2.50;;;2.30;;
17814;SDS011;9031;50.974;11.330;2023-05-10T01:07:30;4.77;;;2.50;;
17814;SDS011;9031;50.974;11.330;2023-05-10T01:09:55;3.67;;;2.83;;
17814;SDS011;9031;50.974;11.330;2023-05-10T01:12:21;3.43;;;2.07;;
17814;SDS011;9031;50.974;11.330;2023-05-10T01:14:47;4.50;;;2.77;;
17814;SDS011;9031;50.974;11.330;2023-05-10T01:17:13;3.30;;;2.57;;
17814;SDS011;9031;50.974;11.330;2023-05-10T01:19:39;4.10;;;2.67;;
17814;SDS011;9031;50.974;11.330;2023-05-10T01:22:14;3.77;;;2.20;;
17814;SDS011;9031;50.974;11.330;2023-05-10T01:36:19;2.67;;;2.47;;
17814;SDS011;9031;50.974;11.330;2023-05-10T01:39:01;2.37;;;2.17;;
17814;SDS011;9031;50.974;11.330;2023-05-10T01:41:49;2.47;;;2.27;;
17814;SDS011;9031;50.974;11.330;2023-05-10T01:47:09;2.30;;;2.10;;
17814;SDS011;9031;50.974;11.330;2023-05-10T01:49:41;2.70;;;2.50;;
17814;SDS011;9031;50.974;11.330;2023-05-10T01:52:15;3.00;;;2.70;;
17814;SDS011;9031;50.974;11.330;2023-05-10T01:55:04;2.60;;;2.40;;
17814;SDS011;9031;50.974;11.330;2023-05-10T01:57:37;4.57;;;2.27;;
17814;SDS011;9031;50.974;11.330;2023-05-10T02:00:05;2.60;;;2.40;;
17814;SDS011;9031;50.974;11.330;2023-05-10T02:02:33;4.10;;;2.70;;
17814;SDS011;9031;50.974;11.330;2023-05-10T02:05:02;2.60;;;2.40;;
17814;SDS011;9031;50.974;11.330;2023-05-10T02:07:30;3.37;;;2.20;;
17814;SDS011;9031;50.974;11.330;2023-05-10T02:09:59;2.53;;;2.10;;
17814;SDS011;9031;50.974;11.330;2023-05-10T02:12:25;3.70;;;2.50;;
17814;SDS011;9031;50.974;11.330;2023-05-10T02:14:53;3.00;;;2.10;;
17814;SDS011;9031;50.974;11.330;2023-05-10T02:17:19;2.67;;;2.33;;
17814;SDS011;9031;50.974;11.330;2023-05-10T02:19:47;3.77;;;2.47;;
17814;SDS011;9031;50.974;11.330;2023-05-10T02:22:13;3.00;;;2.60;;
17814;SDS011;9031;50.974;11.330;2023-05-10T02:24:40;2.27;;;2.07;;
17814;SDS011;9031;50.974;11.330;2023-05-10T02:27:06;3.60;;;2.40;;
17814;SDS011;9031;50.974;11.330;2023-05-10T02:29:34;3.13;;;2.87;;
17814;SDS011;9031;50.974;11.330;2023-05-10T02:32:01;4.33;;;2.80;;
17814;SDS011;9031;50.974;11.330;2023-05-10T02:34:28;5.20;;;2.80;;
17814;SDS011;9031;50.974;11.330;2023-05-10T02:36:54;4.50;;;2.33;;
17814;SDS011;9031;50.974;11.330;2023-05-10T02:39:21;3.00;;;2.70;;
17814;SDS011;9031;50.974;11.330;2023-05-10T02:41:48;3.10;;;2.80;;
17814;SDS011;9031;50.974;11.330;2023-05-10T02:44:15;3.30;;;2.77;;
17814;SDS011;9031;50.974;11.330;2023-05-10T02:46:44;2.80;;;2.43;;
17814;SDS011;9031;50.974;11.330;2023-05-10T02:49:10;3.03;;;2.73;;
17814;SDS011;9031;50.974;11.330;2023-05-10T02:51:37;4.80;;;2.63;;
17814;SDS011;9031;50.974;11.330;2023-05-10T02:54:10;2.83;;;2.63;;
17814;SDS011;9031;50.974;11.330;2023-05-10T02:56:40;3.40;;;2.80;;
17814;SDS011;9031;50.974;11.330;2023-05-10T02:59:12;6.47;;;2.83;;
17814;SDS011;9031;50.974;11.330;2023-05-10T03:01:37;3.30;;;2.60;;
17814;SDS011;9031;50.974;11.330;2023-05-10T03:04:03;2.90;;;2.60;;
17814;SDS011;9031;50.974;11.330;2023-05-10T03:06:29;3.40;;;2.77;;
17814;SDS011;9031;50.974;11.330;2023-05-10T03:08:54;3.20;;;2.90;;
17814;SDS011;9031;50.974;11.330;2023-05-10T03:11:28;4.43;;;3.00;;
17814;SDS011;9031;50.974;11.330;2023-05-10T03:20:03;4.17;;;2.83;;
17814;SDS011;9031;50.974;11.330;2023-05-10T03:22:36;2.60;;;2.40;;
17814;SDS011;9031;50.974;11.330;2023-05-10T03:25:04;6.23;;;2.73;;
17814;SDS011;9031;50.974;11.330;2023-05-10T03:27:31;3.23;;;2.93;;
17814;SDS011;9031;50.974;11.330;2023-05-10T03:29:58;7.53;;;3.00;;
17814;SDS011;9031;50.974;11.330;2023-05-10T03:32:26;3.03;;;2.67;;
17814;SDS011;9031;50.974;11.330;2023-05-10T03:34:53;7.00;;;2.97;;
17814;SDS011;9031;50.974;11.330;2023-05-10T03:37:19;4.67;;;2.90;;
17814;SDS011;9031;50.974;11.330;2023-05-10T03:39:44;2.50;;;2.30;;
17814;SDS011;9031;50.974;11.330;2023-05-10T03:42:10;3.70;;;2.90;;
17814;SDS011;9031;50.974;11.330;2023-05-10T03:44:36;4.17;;;2.93;;
17814;SDS011;9031;50.974;11.330;2023-05-10T03:47:03;3.50;;;2.77;;
17814;SDS011;9031;50.974;11.330;2023-05-10T03:49:29;3.20;;;2.90;;
17814;SDS011;9031;50.974;11.330;2023-05-10T03:51:54;3.07;;;2.73;;
17814;SDS011;9031;50.974;11.330;2023-05-10T03:54:20;5.37;;;2.93;;
17814;SDS011;9031;50.974;11.330;2023-05-10T03:56:45;2.63;;;2.43;;
17814;SDS011;9031;50.974;11.330;2023-05-10T03:59:12;2.43;;;2.23;;
17814;SDS011;9031;50.974;11.330;2023-05-10T04:01:38;3.13;;;2.80;;
17814;SDS011;9031;50.974;11.330;2023-05-10T04:04:04;4.10;;;2.50;;
17814;SDS011;9031;50.974;11.330;2023-05-10T04:06:29;4.60;;;2.30;;
17814;SDS011;9031;50.974;11.330;2023-05-10T04:08:55;2.90;;;2.43;;
17814;SDS011;9031;50.974;11.330;2023-05-10T04:11:24;7.10;;;2.50;;
17814;SDS011;9031;50.974;11.330;2023-05-10T04:13:50;3.13;;;2.70;;
17814;SDS011;9031;50.974;11.330;2023-05-10T04:16:15;3.30;;;2.30;;
17814;SDS011;9031;50.974;11.330;2023-05-10T04:18:41;2.90;;;2.57;;
17814;SDS011;9031;50.974;11.330;2023-05-10T04:21:13;3.13;;;2.53;;
17814;SDS011;9031;50.974;11.330;2023-05-10T04:23:39;4.23;;;2.87;;
17814;SDS011;9031;50.974;11.330;2023-05-10T04:26:05;3.37;;;2.50;;
17814;SDS011;9031;50.974;11.330;2023-05-10T04:28:30;4.23;;;3.10;;
17814;SDS011;9031;50.974;11.330;2023-05-10T04:31:03;4.07;;;2.90;;
17814;SDS011;9031;50.974;11.330;2023-05-10T04:33:32;4.57;;;2.63;;
17814;SDS011;9031;50.974;11.330;2023-05-10T04:35:58;3.37;;;2.70;;
17814;SDS011;9031;50.974;11.330;2023-05-10T04:38:24;3.43;;;2.60;;
17814;SDS011;9031;50.974;11.330;2023-05-10T04:40:50;3.63;;;2.70;;
17814;SDS011;9031;50.974;11.330;2023-05-10T04:43:15;2.80;;;2.53;;
17814;SDS011;9031;50.974;11.330;2023-05-10T04:45:41;4.13;;;2.60;;
17814;SDS011;9031;50.974;11.330;2023-05-10T04:48:06;3.03;;;2.83;;
17814;SDS011;9031;50.974;11.330;2023-05-10T04:50:32;3.37;;;3.07;;
17814;SDS011;9031;50.974;11.330;2023-05-10T04:52:58;3.37;;;2.80;;
17814;SDS011;9031;50.974;11.330;2023-05-10T04:55:23;5.83;;;2.87;;
17814;SDS011;9031;50.974;11.330;2023-05-10T04:57:49;3.57;;;2.70;;
17814;SDS011;9031;50.974;11.330;2023-05-10T05:00:14;6.07;;;2.87;;
17814;SDS011;9031;50.974;11.330;2023-05-10T05:02:44;4.53;;;2.60;;
17814;SDS011;9031;50.974;11.330;2023-05-10T05:05:10;3.53;;;3.23;;
17814;SDS011;9031;50.974;11.330;2023-05-10T05:07:39;4.70;;;2.80;;
17814;SDS011;9031;50.974;11.330;2023-05-10T05:10:07;3.30;;;2.70;;
17814;SDS011;9031;50.974;11.330;2023-05-10T05:12:34;2.90;;;2.70;;
17814;SDS011;9031;50.974;11.330;2023-05-10T05:15:00;3.83;;;2.90;;
17814;SDS011;9031;50.974;11.330;2023-05-10T05:17:26;3.10;;;2.80;;
17814;SDS011;9031;50.974;11.330;2023-05-10T05:19:51;4.73;;;3.20;;
17814;SDS011;9031;50.974;11.330;2023-05-10T05:22:17;4.13;;;3.00;;
17814;SDS011;9031;50.974;11.330;2023-05-10T05:24:44;4.87;;;3.00;;
17814;SDS011;9031;50.974;11.330;2023-05-10T05:27:10;3.23;;;2.90;;
17814;SDS011;9031;50.974;11.330;2023-05-10T05:29:35;3.73;;;2.97;;
17814;SDS011;9031;50.974;11.330;2023-05-10T05:32:01;3.20;;;2.90;;
17814;SDS011;9031;50.974;11.330;2023-05-10T05:34:26;4.67;;;3.13;;
17814;SDS011;9031;50.974;11.330;2023-05-10T05:36:52;4.50;;;3.07;;
17814;SDS011;9031;50.974;11.330;2023-05-10T05:39:17;2.90;;;2.60;;
17814;SDS011;9031;50.974;11.330;2023-05-10T05:41:43;5.43;;;2.80;;
17814;SDS011;9031;50.974;11.330;2023-05-10T05:44:08;4.17;;;3.13;;
17814;SDS011;9031;50.974;11.330;2023-05-10T05:46:34;3.70;;;3.10;;
17814;SDS011;9031;50.974;11.330;2023-05-10T05:48:59;2.83;;;2.53;;
17814;SDS011;9031;50.974;11.330;2023-05-10T05:51:25;4.80;;;2.80;;
17814;SDS011;9031;50.974;11.330;2023-05-10T05:53:50;3.70;;;3.10;;
17814;SDS011;9031;50.974;11.330;2023-05-10T05:56:16;3.10;;;2.80;;
17814;SDS011;9031;50.974;11.330;2023-05-10T05:58:48;3.50;;;3.00;;
17814;SDS011;9031;50.974;11.330;2023-05-10T06:01:14;4.87;;;2.83;;
17814;SDS011;9031;50.974;11.330;2023-05-10T06:03:40;3.27;;;2.80;;
17814;SDS011;9031;50.974;11.330;2023-05-10T06:06:05;3.40;;;3.10;;
17814;SDS011;9031;50.974;11.330;2023-05-10T06:08:31;8.13;;;3.20;;
17814;SDS011;9031;50.974;11.330;2023-05-10T06:10:57;4.67;;;2.93;;
17814;SDS011;9031;50.974;11.330;2023-05-10T06:13:22;3.40;;;3.10;;
17814;SDS011;9031;50.974;11.330;2023-05-10T06:15:47;3.70;;;3.33;;
17814;SDS011;9031;50.974;11.330;2023-05-10T06:18:13;4.07;;;3.13;;
17814;SDS011;9031;50.974;11.330;2023-05-10T06:20:38;3.47;;;3.17;;
17814;SDS011;9031;50.974;11.330;2023-05-10T06:23:06;3.70;;;3.40;;
17814;SDS011;9031;50.974;11.330;2023-05-10T06:25:31;4.60;;;3.50;;
17814;SDS011;9031;50.974;11.330;2023-05-10T06:27:57;6.33;;;3.73;;
17814;SDS011;9031;50.974;11.330;2023-05-10T06:30:23;3.70;;;3.10;;
17814;SDS011;9031;50.974;11.330;2023-05-10T06:32:52;4.07;;;3.67;;
17814;SDS011;9031;50.974;11.330;2023-05-10T06:35:18;3.87;;;3.47;;
17814;SDS011;9031;50.974;11.330;2023-05-10T06:37:44;3.37;;;3.07;;
17814;SDS011;9031;50.974;11.330;2023-05-10T06:40:09;4.87;;;3.23;;
17814;SDS011;9031;50.974;11.330;2023-05-10T06:42:35;5.97;;;4.37;;
17814;SDS011;9031;50.974;11.330;2023-05-10T06:45:00;6.00;;;4.40;;
17814;SDS011;9031;50.974;11.330;2023-05-10T06:47:26;3.87;;;3.57;;
17814;SDS011;9031;50.974;11.330;2023-05-10T06:49:51;4.30;;;3.27;;
17814;SDS011;9031;50.974;11.330;2023-05-10T06:52:17;4.53;;;3.40;;
17814;SDS011;9031;50.974;11.330;2023-05-10T06:54:42;6.07;;;3.70;;
17814;SDS011;9031;50.974;11.330;2023-05-10T06:57:09;4.10;;;3.60;;
17814;SDS011;9031;50.974;11.330;2023-05-10T06:59:34;5.00;;;3.50;;
17814;SDS011;9031;50.974;11.330;2023-05-10T07:02:01;8.73;;;3.90;;
17814;SDS011;9031;50.974;11.330;2023-05-10T07:04:27;5.30;;;4.03;;
17814;SDS011;9031;50.974;11.330;2023-05-10T07:06:52;4.37;;;3.83;;
17814;SDS011;9031;50.974;11.330;2023-05-10T07:09:18;4.53;;;4.00;;
17814;SDS011;9031;50.974;11.330;2023-05-10T07:11:43;4.47;;;4.13;;
17814;SDS011;9031;50.974;11.330;2023-05-10T07:14:09;5.17;;;4.67;;
17814;SDS011;9031;50.974;11.330;2023-05-10T07:16:34;4.83;;;4.43;;
17814;SDS011;9031;50.974;11.330;2023-05-10T07:19:00;4.87;;;4.33;;
17814;SDS011;9031;50.974;11.330;2023-05-10T07:21:25;4.13;;;3.73;;
17814;SDS011;9031;50.974;11.330;2023-05-10T07:23:53;4.77;;;3.80;;
17814;SDS011;9031;50.974;11.330;2023-05-10T07:26:19;5.13;;;4.00;;
17814;SDS011;9031;50.974;11.330;2023-05-10T07:28:45;5.63;;;3.90;;
17814;SDS011;9031;50.974;11.330;2023-05-10T07:31:11;4.60;;;4.20;;
17814;SDS011;9031;50.974;11.330;2023-05-10T07:33:37;4.30;;;3.90;;
17814;SDS011;9031;50.974;11.330;2023-05-10T07:36:02;6.20;;;3.87;;
17814;SDS011;9031;50.974;11.330;2023-05-10T07:38:28;3.63;;;3.33;;
17814;SDS011;9031;50.974;11.330;2023-05-10T07:40:53;3.87;;;3.57;;
17814;SDS011;9031;50.974;11.330;2023-05-10T07:43:19;4.47;;;4.07;;
17814;SDS011;9031;50.974;11.330;2023-05-10T07:45:44;5.60;;;4.03;;
17814;SDS011;9031;50.974;11.330;2023-05-10T07:48:10;4.97;;;4.47;;
17814;SDS011;9031;50.974;11.330;2023-05-10T07:50:35;4.13;;;3.73;;
17814;SDS011;9031;50.974;11.330;2023-05-10T07:53:01;4.77;;;3.67;;
17814;SDS011;9031;50.974;11.330;2023-05-10T07:55:26;4.37;;;3.73;;
17814;SDS011;9031;50.974;11.330;2023-05-10T07:57:52;7.27;;;4.07;;
17814;SDS011;9031;50.974;11.330;2023-05-10T08:00:18;4.30;;;3.70;;
17814;SDS011;9031;50.974;11.330;2023-05-10T08:02:44;6.03;;;3.73;;
17814;SDS011;9031;50.974;11.330;2023-05-10T08:05:10;3.70;;;3.40;;
17814;SDS011;9031;50.974;11.330;2023-05-10T08:07:37;4.30;;;3.70;;
17814;SDS011;9031;50.974;11.330;2023-05-10T08:10:03;4.57;;;3.37;;
17814;SDS011;9031;50.974;11.330;2023-05-10T08:12:29;4.07;;;3.40;;
17814;SDS011;9031;50.974;11.330;2023-05-10T08:14:55;5.27;;;2.80;;
17814;SDS011;9031;50.974;11.330;2023-05-10T08:17:20;3.87;;;3.20;;
17814;SDS011;9031;50.974;11.330;2023-05-10T08:19:46;4.00;;;2.97;;
17814;SDS011;9031;50.974;11.330;2023-05-10T08:22:11;3.33;;;3.00;;
17814;SDS011;9031;50.974;11.330;2023-05-10T08:24:37;7.30;;;3.20;;
17814;SDS011;9031;50.974;11.330;2023-05-10T08:27:07;3.60;;;3.30;;
17814;SDS011;9031;50.974;11.330;2023-05-10T08:29:33;3.77;;;3.13;;
17814;SDS011;9031;50.974;11.330;2023-05-10T08:31:58;5.50;;;3.70;;
17814;SDS011;9031;50.974;11.330;2023-05-10T08:34:25;3.53;;;3.23;;
17814;SDS011;9031;50.974;11.330;2023-05-10T08:36:51;3.60;;;3.30;;
17814;SDS011;9031;50.974;11.330;2023-05-10T08:39:17;4.13;;;3.10;;
17814;SDS011;9031;50.974;11.330;2023-05-10T08:41:43;3.87;;;3.50;;
17814;SDS011;9031;50.974;11.330;2023-05-10T08:44:10;3.23;;;2.93;;
17814;SDS011;9031;50.974;11.330;2023-05-10T08:46:35;3.63;;;2.90;;
17814;SDS011;9031;50.974;11.330;2023-05-10T08:49:04;4.10;;;3.20;;
17814;SDS011;9031;50.974;11.330;2023-05-10T08:51:35;4.60;;;3.27;;
17814;SDS011;9031;50.974;11.330;2023-05-10T08:54:04;3.93;;;3.27;;
17814;SDS011;9031;50.974;11.330;2023-05-10T08:56:31;3.40;;;3.10;;
17814;SDS011;9031;50.974;11.330;2023-05-10T08:58:57;5.10;;;3.70;;
17814;SDS011;9031;50.974;11.330;2023-05-10T09:01:22;7.10;;;3.93;;
17814;SDS011;9031;50.974;11.330;2023-05-10T09:03:49;4.87;;;3.37;;
17814;SDS011;9031;50.974;11.330;2023-05-10T09:06:15;4.63;;;3.57;;
17814;SDS011;9031;50.974;11.330;2023-05-10T09:08:43;4.93;;;3.20;;
17814;SDS011;9031;50.974;11.330;2023-05-10T09:11:12;7.53;;;3.70;;
17814;SDS011;9031;50.974;11.330;2023-05-10T09:13:37;3.60;;;3.30;;
17814;SDS011;9031;50.974;11.330;2023-05-10T09:16:03;3.60;;;2.90;;
17814;SDS011;9031;50.974;11.330;2023-05-10T09:18:29;3.47;;;2.93;;
17814;SDS011;9031;50.974;11.330;2023-05-10T09:20:55;3.10;;;2.90;;
17814;SDS011;9031;50.974;11.330;2023-05-10T09:23:21;3.23;;;2.70;;
17814;SDS011;9031;50.974;11.330;2023-05-10T09:25:46;4.73;;;2.60;;
17814;SDS011;9031;50.974;11.330;2023-05-10T09:28:12;2.70;;;1.80;;
17814;SDS011;9031;50.974;11.330;2023-05-10T09:30:38;2.93;;;1.70;;
17814;SDS011;9031;50.974;11.330;2023-05-10T09:33:04;3.40;;;1.80;;
17814;SDS011;9031;50.974;11.330;2023-05-10T09:35:31;2.27;;;1.03;;
17814;SDS011;9031;50.974;11.330;2023-05-10T09:38:03;1.70;;;1.30;;
17814;SDS011;9031;50.974;11.330;2023-05-10T09:40:30;3.43;;;1.80;;
17814;SDS011;9031;50.974;11.330;2023-05-10T09:43:00;1.80;;;1.33;;
17814;SDS011;9031;50.974;11.330;2023-05-10T09:45:28;2.23;;;1.00;;
17814;SDS011;9031;50.974;11.330;2023-05-10T09:47:55;2.87;;;1.40;;
17814;SDS011;9031;50.974;11.330;2023-05-10T09:50:21;0.87;;;0.70;;
17814;SDS011;9031;50.974;11.330;2023-05-10T09:55:21;0.80;;;0.60;;
17814;SDS011;9031;50.974;11.330;2023-05-10T09:57:49;1.23;;;0.97;;
17814;SDS011;9031;50.974;11.330;2023-05-10T10:00:23;2.40;;;0.90;;
17814;SDS011;9031;50.974;11.330;2023-05-10T10:02:58;0.97;;;0.40;;
17814;SDS011;9031;50.974;11.330;2023-05-10T10:05:28;0.60;;;0.47;;
17814;SDS011;9031;50.974;11.330;2023-05-10T10:07:58;0.53;;;0.30;;
17814;SDS011;9031;50.974;11.330;2023-05-10T10:10:25;0.30;;;0.30;;
17814;SDS011;9031;50.974;11.330;2023-05-10T10:12:51;0.93;;;0.80;;
17814;SDS011;9031;50.974;11.330;2023-05-10T10:15:17;0.60;;;0.40;;
17814;SDS011;9031;50.974;11.330;2023-05-10T10:17:45;1.73;;;1.47;;
17814;SDS011;9031;50.974;11.330;2023-05-10T10:20:11;1.17;;;0.53;;
17814;SDS011;9031;50.974;11.330;2023-05-10T10:22:37;2.33;;;2.17;;
17814;SDS011;9031;50.974;11.330;2023-05-10T10:25:03;0.50;;;0.30;;
17814;SDS011;9031;50.974;11.330;2023-05-10T10:30:16;0.23;;;0.20;;
17814;SDS011;9031;50.974;11.330;2023-05-10T10:35:36;1.13;;;0.97;;
17814;SDS011;9031;50.974;11.330;2023-05-10T10:38:02;2.67;;;0.90;;
17814;SDS011;9031;50.974;11.330;2023-05-10T10:40:31;2.67;;;1.17;;
17814;SDS011;9031;50.974;11.330;2023-05-10T10:42:58;0.70;;;0.70;;
17814;SDS011;9031;50.974;11.330;2023-05-10T10:48:38;1.10;;;1.03;;
17814;SDS011;9031;50.974;11.330;2023-05-10T10:51:04;3.97;;;2.63;;
17814;SDS011;9031;50.974;11.330;2023-05-10T10:53:30;1.10;;;1.00;;
17814;SDS011;9031;50.974;11.330;2023-05-10T10:56:28;0.90;;;0.50;;
17814;SDS011;9031;50.974;11.330;2023-05-10T10:58:49;1.30;;;0.90;;
17814;SDS011;9031;50.974;11.330;2023-05-10T11:01:18;1.70;;;1.13;;
17814;SDS011;9031;50.974;11.330;2023-05-10T11:06:28;0.20;;;0.20;;
17814;SDS011;9031;50.974;11.330;2023-05-10T11:08:58;2.20;;;0.50;;
17814;SDS011;9031;50.974;11.330;2023-05-10T11:11:25;0.10;;;0.10;;
17814;SDS011;9031;50.974;11.330;2023-05-10T11:13:50;0.50;;;0.10;;
17814;SDS011;9031;50.974;11.330;2023-05-10T11:16:17;1.63;;;0.37;;
17814;SDS011;9031;50.974;11.330;2023-05-10T11:18:54;3.27;;;2.43;;
17814;SDS011;9031;50.974;11.330;2023-05-10T11:21:31;0.70;;;0.43;;
17814;SDS011;9031;50.974;11.330;2023-05-10T11:23:58;1.77;;;0.60;;
17814;SDS011;9031;50.974;11.330;2023-05-10T11:26:29;2.20;;;0.30;;
17814;SDS011;9031;50.974;11.330;2023-05-10T11:28:56;0.30;;;0.20;;
17814;SDS011;9031;50.974;11.330;2023-05-10T11:31:23;1.40;;;0.30;;
17814;SDS011;9031;50.974;11.330;2023-05-10T11:33:52;0.90;;;0.60;;
17814;SDS011;9031;50.974;11.330;2023-05-10T11:36:19;0.53;;;0.30;;
17814;SDS011;9031;50.974;11.330;2023-05-10T11:38:47;2.23;;;2.03;;
17814;SDS011;9031;50.974;11.330;2023-05-10T11:41:13;2.20;;;0.40;;
17814;SDS011;9031;50.974;11.330;2023-05-10T11:43:40;0.40;;;0.17;;
17814;SDS011;9031;50.974;11.330;2023-05-10T11:46:07;0.20;;;0.20;;
17814;SDS011;9031;50.974;11.330;2023-05-10T11:48:35;0.30;;;0.20;;
17814;SDS011;9031;50.974;11.330;2023-05-10T11:51:01;0.50;;;0.50;;
17814;SDS011;9031;50.974;11.330;2023-05-10T11:53:28;1.43;;;0.80;;
17814;SDS011;9031;50.974;11.330;2023-05-10T11:56:07;0.60;;;0.60;;
17814;SDS011;9031;50.974;11.330;2023-05-10T11:58:34;1.10;;;1.00;;
17814;SDS011;9031;50.974;11.330;2023-05-10T12:01:00;2.40;;;0.80;;
17814;SDS011;9031;50.974;11.330;2023-05-10T12:03:27;0.60;;;0.43;;
17814;SDS011;9031;50.974;11.330;2023-05-10T12:05:54;1.23;;;1.17;;
17814;SDS011;9031;50.974;11.330;2023-05-10T12:08:22;0.90;;;0.70;;
17814;SDS011;9031;50.974;11.330;2023-05-10T12:10:48;0.93;;;0.67;;
17814;SDS011;9031;50.974;11.330;2023-05-10T12:13:14;0.80;;;0.80;;
17814;SDS011;9031;50.974;11.330;2023-05-10T12:15:40;2.95;;;2.10;;
17814;SDS011;9031;50.974;11.330;2023-05-10T12:18:13;0.50;;;0.50;;
17814;SDS011;9031;50.974;11.330;2023-05-10T12:20:40;1.63;;;1.03;;
17814;SDS011;9031;50.974;11.330;2023-05-10T12:23:07;1.17;;;0.90;;
17814;SDS011;9031;50.974;11.330;2023-05-10T12:25:35;1.07;;;0.97;;
17814;SDS011;9031;50.974;11.330;2023-05-10T12:28:06;0.80;;;0.80;;
17814;SDS011;9031;50.974;11.330;2023-05-10T12:30:33;1.87;;;1.23;;
17814;SDS011;9031;50.974;11.330;2023-05-10T12:33:09;1.30;;;0.80;;
17814;SDS011;9031;50.974;11.330;2023-05-10T12:35:52;0.83;;;0.73;;
17814;SDS011;9031;50.974;11.330;2023-05-10T12:38:28;0.90;;;0.80;;
17814;SDS011;9031;50.974;11.330;2023-05-10T12:40:57;0.63;;;0.60;;
17814;SDS011;9031;50.974;11.330;2023-05-10T12:43:27;1.07;;;0.80;;
17814;SDS011;9031;50.974;11.330;2023-05-10T12:45:53;1.07;;;0.70;;
17814;SDS011;9031;50.974;11.330;2023-05-10T12:48:19;0.70;;;0.70;;
17814;SDS011;9031;50.974;11.330;2023-05-10T12:50:45;1.03;;;0.70;;
17814;SDS011;9031;50.974;11.330;2023-05-10T12:53:10;0.50;;;0.50;;
17814;SDS011;9031;50.974;11.330;2023-05-10T12:55:36;0.80;;;0.70;;
17814;SDS011;9031;50.974;11.330;2023-05-10T12:58:01;0.57;;;0.57;;
17814;SDS011;9031;50.974;11.330;2023-05-10T13:00:27;1.60;;;1.47;;
17814;SDS011;9031;50.974;11.330;2023-05-10T13:02:53;0.50;;;0.30;;
17814;SDS011;9031;50.974;11.330;2023-05-10T13:05:19;0.63;;;0.43;;
17814;SDS011;9031;50.974;11.330;2023-05-10T13:07:44;2.80;;;0.40;;
17814;SDS011;9031;50.974;11.330;2023-05-10T13:10:10;0.63;;;0.40;;
17814;SDS011;9031;50.974;11.330;2023-05-10T13:12:36;1.03;;;0.40;;
17814;SDS011;9031;50.974;11.330;2023-05-10T13:15:02;0.20;;;0.20;;
17814;SDS011;9031;50.974;11.330;2023-05-10T13:17:28;0.93;;;0.30;;
17814;SDS011;9031;50.974;11.330;2023-05-10T13:19:54;0.50;;;0.30;;
17814;SDS011;9031;50.974;11.330;2023-05-10T13:22:19;0.70;;;0.20;;
17814;SDS011;9031;50.974;11.330;2023-05-10T13:24:45;0.23;;;0.20;;
17814;SDS011;9031;50.974;11.330;2023-05-10T13:27:10;2.63;;;1.20;;
17814;SDS011;9031;50.974;11.330;2023-05-10T13:29:36;2.50;;;0.50;;
17814;SDS011;9031;50.974;11.330;2023-05-10T13:32:01;0.10;;;0.10;;
17814;SDS011;9031;50.974;11.330;2023-05-10T13:34:27;0.10;;;0.10;;
17814;SDS011;9031;50.974;11.330;2023-05-10T13:36:53;0.20;;;0.20;;
17814;SDS011;9031;50.974;11.330;2023-05-10T13:39:19;0.50;;;0.13;;
17814;SDS011;9031;50.974;11.330;2023-05-10T13:41:45;0.50;;;0.27;;
17814;SDS011;9031;50.974;11.330;2023-05-10T13:44:14;0.20;;;0.20;;
17814;SDS011;9031;50.974;11.330;2023-05-10T13:46:40;0.30;;;0.20;;
17814;SDS011;9031;50.974;11.330;2023-05-10T13:49:07;0.22;;;0.10;;
17814;SDS011;9031;50.974;11.330;2023-05-10T13:51:33;0.70;;;0.70;;
17814;SDS011;9031;50.974;11.330;2023-05-10T13:54:00;0.40;;;0.40;;
17814;SDS011;9031;50.974;11.330;2023-05-10T13:56:26;0.30;;;0.25;;
17814;SDS011;9031;50.974;11.330;2023-05-10T13:58:52;5.18;;;3.58;;
17814;SDS011;9031;50.974;11.330;2023-05-10T14:01:17;0.30;;;0.30;;
17814;SDS011;9031;50.974;11.330;2023-05-10T14:03:44;2.80;;;2.35;;
17814;SDS011;9031;50.974;11.330;2023-05-10T14:06:09;0.30;;;0.30;;
17814;SDS011;9031;50.974;11.330;2023-05-10T14:08:35;1.07;;;0.97;;
17814;SDS011;9031;50.974;11.330;2023-05-10T14:11:01;1.10;;;0.23;;
17814;SDS011;9031;50.974;11.330;2023-05-10T14:13:26;0.60;;;0.30;;
17814;SDS011;9031;50.974;11.330;2023-05-10T14:15:52;0.50;;;0.30;;
17814;SDS011;9031;50.974;11.330;2023-05-10T14:18:18;0.20;;;0.20;;
17814;SDS011;9031;50.974;11.330;2023-05-10T14:20:44;0.20;;;0.20;;
17814;SDS011;9031;50.974;11.330;2023-05-10T14:23:09;0.30;;;0.20;;
17814;SDS011;9031;50.974;11.330;2023-05-10T14:25:35;3.13;;;0.20;;
17814;SDS011;9031;50.974;11.330;2023-05-10T14:28:01;2.57;;;0.30;;
17814;SDS011;9031;50.974;11.330;2023-05-10T14:30:26;0.30;;;0.20;;
17814;SDS011;9031;50.974;11.330;2023-05-10T14:32:52;0.30;;;0.23;;
17814;SDS011;9031;50.974;11.330;2023-05-10T14:35:19;0.57;;;0.50;;
17814;SDS011;9031;50.974;11.330;2023-05-10T14:37:44;0.60;;;0.50;;
17814;SDS011;9031;50.974;11.330;2023-05-10T14:40:10;0.10;;;0.10;;
17814;SDS011;9031;50.974;11.330;2023-05-10T14:42:36;1.77;;;1.03;;
17814;SDS011;9031;50.974;11.330;2023-05-10T14:45:02;11.30;;;9.07;;
17814;SDS011;9031;50.974;11.330;2023-05-10T14:47:28;2.60;;;0.60;;
17814;SDS011;9031;50.974;11.330;2023-05-10T14:49:54;0.90;;;0.60;;
17814;SDS011;9031;50.974;11.330;2023-05-10T14:52:19;0.70;;;0.37;;
17814;SDS011;9031;50.974;11.330;2023-05-10T14:54:45;0.60;;;0.23;;
17814;SDS011;9031;50.974;11.330;2023-05-10T14:57:11;0.90;;;0.77;;
17814;SDS011;9031;50.974;11.330;2023-05-10T14:59:36;1.03;;;0.70;;
17814;SDS011;9031;50.974;11.330;2023-05-10T15:02:02;0.70;;;0.63;;
17814;SDS011;9031;50.974;11.330;2023-05-10T15:04:29;0.57;;;0.40;;
17814;SDS011;9031;50.974;11.330;2023-05-10T15:06:54;1.03;;;0.50;;
17814;SDS011;9031;50.974;11.330;2023-05-10T15:09:23;0.93;;;0.33;;
17814;SDS011;9031;50.974;11.330;2023-05-10T15:11:49;1.83;;;0.20;;
17814;SDS011;9031;50.974;11.330;2023-05-10T15:14:15;1.27;;;0.97;;
17814;SDS011;9031;50.974;11.330;2023-05-10T15:16:40;0.20;;;0.20;;
17814;SDS011;9031;50.974;11.330;2023-05-10T15:19:06;0.30;;;0.30;;
17814;SDS011;9031;50.974;11.330;2023-05-10T15:21:31;0.20;;;0.20;;